Time;durP1;ratioP1;P1;durP2;ratioP2;P2;SDS_P1;SDS_P2;PMS_P1;PMS_P2;Temp;Humidity;BMP_temperature;BMP_pressure;BME280_temperature;BME280_humidity;BME280_pressure;Samples;Min_cycle;Max_cycle;Signal;HPM_P1;HPM_P2
2021/07/10 00:00:12;;;;;;;0.50;0.50;;;14.80;99.90;;;;;;5050451;28;20029;-82
2021/07/10 00:02:39;;;;;;;0.20;0.20;;;14.80;99.90;;;;;;5063076;28;20360;-82
2021/07/10 00:05:06;;;;;;;0.10;0.10;;;14.80;99.90;;;;;;5071093;28;20029;-82
2021/07/10 00:07:32;;;;;;;0.20;0.20;;;14.80;99.90;;;;;;5067370;28;20410;-83
2021/07/10 00:10:00;;;;;;;0.10;0.10;;;14.60;99.90;;;;;;5055040;28;20032;-82
2021/07/10 00:12:26;;;;;;;0.20;0.20;;;14.70;99.90;;;;;;5069806;28;20024;-82
2021/07/10 00:14:52;;;;;;;0.25;0.25;;;14.60;99.90;;;;;;5057925;28;20094;-82
2021/07/10 00:17:18;;;;;;;0.27;0.27;;;14.60;99.90;;;;;;5051385;28;20033;-82
2021/07/10 00:19:43;;;;;;;0.20;0.20;;;14.40;99.90;;;;;;5054965;28;20089;-83
2021/07/10 00:22:09;;;;;;;0.20;0.20;;;14.50;99.90;;;;;;5070718;28;20051;-82
2021/07/10 00:24:35;;;;;;;1.53;1.03;;;14.40;99.90;;;;;;5057344;28;20021;-81
2021/07/10 00:27:02;;;;;;;0.10;0.10;;;14.30;99.90;;;;;;5071026;28;20032;-82
2021/07/10 00:29:31;;;;;;;0.22;0.22;;;14.40;99.90;;;;;;5052360;28;20036;-82
2021/07/10 00:31:57;;;;;;;0.10;0.10;;;14.40;99.90;;;;;;5058578;28;20048;-82
2021/07/10 00:34:23;;;;;;;0.17;0.17;;;14.40;99.90;;;;;;5057741;28;20060;-82
2021/07/10 00:36:48;;;;;;;0.10;0.10;;;14.40;99.90;;;;;;5063823;28;20075;-82
2021/07/10 00:39:14;;;;;;;0.10;0.10;;;14.30;99.90;;;;;;5051187;28;20029;-83
2021/07/10 00:41:40;;;;;;;0.17;0.17;;;14.30;99.90;;;;;;5070578;28;20581;-82
2021/07/10 00:44:06;;;;;;;0.20;0.20;;;14.20;99.90;;;;;;5070233;28;20052;-82
2021/07/10 00:46:31;;;;;;;0.47;0.37;;;14.10;99.90;;;;;;5069167;28;20029;-82
2021/07/10 00:48:57;;;;;;;0.20;0.20;;;14.10;99.90;;;;;;5055120;28;20719;-82
2021/07/10 00:51:23;;;;;;;0.10;0.10;;;14.00;99.90;;;;;;5050201;28;20047;-82
2021/07/10 00:53:49;;;;;;;0.20;0.20;;;14.00;99.90;;;;;;5050639;28;20040;-82
2021/07/10 00:56:16;;;;;;;0.00;0.00;;;13.90;99.90;;;;;;5049693;28;20029;-82
2021/07/10 00:58:42;;;;;;;0.45;0.32;;;13.90;99.90;;;;;;5059731;28;20349;-82
2021/07/10 01:01:08;;;;;;;0.40;0.40;;;14.10;99.90;;;;;;5057987;28;20025;-83
2021/07/10 01:03:35;;;;;;;0.30;0.30;;;14.20;99.90;;;;;;5066727;28;20028;-83
2021/07/10 01:06:02;;;;;;;0.10;0.10;;;14.20;99.90;;;;;;5057711;28;20031;-82
2021/07/10 01:08:27;;;;;;;0.20;0.20;;;14.20;99.90;;;;;;5065252;28;20029;-82
2021/07/10 01:10:55;;;;;;;0.10;0.10;;;14.10;99.90;;;;;;5052884;28;20029;-82
2021/07/10 01:13:21;;;;;;;0.20;0.20;;;14.10;99.90;;;;;;5059606;28;20064;-82
2021/07/10 01:15:47;;;;;;;0.20;0.20;;;13.90;99.90;;;;;;5068904;28;20027;-83
2021/07/10 01:18:13;;;;;;;0.10;0.10;;;13.70;99.90;;;;;;5066695;28;20116;-83
2021/07/10 01:20:54;;;;;;;0.60;0.60;;;13.90;99.90;;;;;;5069460;28;20107;-82
2021/07/10 01:23:22;;;;;;;0.03;0.03;;;13.80;99.90;;;;;;5066012;28;20032;-82
2021/07/10 01:25:48;;;;;;;0.10;0.10;;;13.70;99.90;;;;;;5068788;28;20064;-82
2021/07/10 01:28:15;;;;;;;0.20;0.20;;;13.60;99.90;;;;;;5051572;28;20074;-82
2021/07/10 01:30:42;;;;;;;0.68;0.47;;;13.60;99.90;;;;;;5065664;28;20036;-82
2021/07/10 01:33:08;;;;;;;;;;;13.50;99.90;;;;;;5064679;28;20062;-82
2021/07/10 01:35:35;;;;;;;0.13;0.13;;;13.50;99.90;;;;;;5049248;28;20341;-82
2021/07/10 01:38:04;;;;;;;0.10;0.10;;;13.50;99.90;;;;;;5049291;28;20024;-81
2021/07/10 01:40:29;;;;;;;0.45;0.45;;;13.50;99.90;;;;;;5048025;28;20399;-81
2021/07/10 01:42:56;;;;;;;0.43;0.43;;;13.40;99.90;;;;;;5048829;28;20048;-82
2021/07/10 01:45:22;;;;;;;0.43;0.30;;;13.40;99.90;;;;;;5048286;28;20033;-82
2021/07/10 01:47:52;;;;;;;0.20;0.20;;;13.40;99.90;;;;;;5048388;28;20035;-82
2021/07/10 01:50:19;;;;;;;0.10;0.10;;;13.50;99.90;;;;;;5048329;28;20044;-82
2021/07/10 01:52:45;;;;;;;0.13;0.13;;;13.50;99.90;;;;;;5049069;28;20040;-83
2021/07/10 01:55:13;;;;;;;0.50;0.25;;;13.50;99.90;;;;;;5049813;28;20041;-83
2021/07/10 01:57:39;;;;;;;0.10;0.10;;;13.40;99.90;;;;;;5057914;28;20494;-82
2021/07/10 02:00:22;;;;;;;0.35;0.35;;;13.40;99.90;;;;;;5058336;28;20029;-82
2021/07/10 02:02:49;;;;;;;0.20;0.20;;;13.30;99.90;;;;;;5059196;28;20024;-82
2021/07/10 02:05:21;;;;;;;0.55;0.52;;;13.30;99.90;;;;;;5052034;28;20059;-83
2021/07/10 02:07:47;;;;;;;0.10;0.10;;;13.40;99.90;;;;;;5054393;28;20521;-82
2021/07/10 02:10:14;;;;;;;0.10;0.10;;;13.40;99.90;;;;;;5068639;28;20082;-83
2021/07/10 02:12:49;;;;;;;0.10;0.10;;;13.30;99.90;;;;;;5058985;28;20032;-82
2021/07/10 02:15:15;;;;;;;0.70;0.30;;;13.30;99.90;;;;;;5057036;28;20036;-82
2021/07/10 02:17:44;;;;;;;0.17;0.17;;;13.20;99.90;;;;;;5065561;28;20452;-82
2021/07/10 02:20:13;;;;;;;1.33;0.22;;;13.10;99.90;;;;;;5056031;28;20417;-82
2021/07/10 02:22:39;;;;;;;0.13;0.13;;;13.10;99.90;;;;;;5049366;28;20029;-82
2021/07/10 02:25:07;;;;;;;0.10;0.10;;;13.10;99.90;;;;;;5050584;28;20509;-83
2021/07/10 02:27:33;;;;;;;0.20;0.20;;;13.00;99.90;;;;;;5058613;28;20020;-83
2021/07/10 02:29:59;;;;;;;0.22;0.22;;;13.10;99.90;;;;;;5059668;28;20029;-83
2021/07/10 02:32:25;;;;;;;0.20;0.20;;;13.10;99.90;;;;;;5053876;28;20561;-82
2021/07/10 02:34:50;;;;;;;0.10;0.10;;;13.10;99.90;;;;;;5055618;28;20029;-83
2021/07/10 02:37:16;;;;;;;0.25;0.25;;;13.00;99.90;;;;;;5057171;28;20110;-82
2021/07/10 02:39:42;;;;;;;0.20;0.20;;;13.00;99.90;;;;;;5069415;28;20794;-82
2021/07/10 02:42:08;;;;;;;0.20;0.13;;;13.00;99.90;;;;;;5055481;28;20485;-82
2021/07/10 02:44:34;;;;;;;0.50;0.50;;;13.00;99.90;;;;;;5049466;28;20029;-82
2021/07/10 02:47:00;;;;;;;0.00;0.00;;;12.90;99.90;;;;;;5055417;28;20043;-82
2021/07/10 02:49:25;;;;;;;0.00;0.00;;;12.90;99.90;;;;;;5069319;28;20082;-82
2021/07/10 02:51:51;;;;;;;0.10;0.10;;;12.80;99.90;;;;;;5069279;28;20481;-82
2021/07/10 02:54:17;;;;;;;0.00;0.00;;;12.90;99.90;;;;;;5060482;28;20040;-81
2021/07/10 02:56:43;;;;;;;0.00;0.00;;;12.90;99.90;;;;;;5052738;28;20032;-82
2021/07/10 02:59:08;;;;;;;0.17;0.17;;;12.90;99.90;;;;;;5059734;28;20410;-81
2021/07/10 03:01:34;;;;;;;0.10;0.10;;;12.90;99.90;;;;;;5069027;28;20028;-82
2021/07/10 03:04:00;;;;;;;0.10;0.10;;;12.80;99.90;;;;;;5065888;28;20060;-82
2021/07/10 03:06:26;;;;;;;0.77;0.37;;;12.70;99.90;;;;;;5056642;28;20029;-82
2021/07/10 03:08:51;;;;;;;0.10;0.10;;;12.70;99.90;;;;;;5067638;28;20044;-83
2021/07/10 03:11:17;;;;;;;0.20;0.20;;;12.50;99.90;;;;;;5056065;28;20035;-83
2021/07/10 03:13:43;;;;;;;0.13;0.13;;;12.50;99.90;;;;;;5065027;28;20485;-82
2021/07/10 03:16:09;;;;;;;0.32;0.28;;;12.50;99.90;;;;;;5060067;28;20532;-82
2021/07/10 03:18:35;;;;;;;0.10;0.10;;;12.40;99.90;;;;;;5062387;28;20025;-82
2021/07/10 03:21:02;;;;;;;0.00;0.00;;;12.30;99.90;;;;;;5058840;28;20425;-83
2021/07/10 03:23:27;;;;;;;0.20;0.20;;;12.20;99.90;;;;;;5047369;28;20013;-83
2021/07/10 03:25:53;;;;;;;0.10;0.10;;;12.30;99.90;;;;;;5050044;28;20033;-82
2021/07/10 03:28:19;;;;;;;11.73;2.27;;;12.30;99.90;;;;;;5048465;28;20047;-83
2021/07/10 03:30:54;;;;;;;0.13;0.13;;;12.40;99.90;;;;;;5048953;28;20450;-83
2021/07/10 03:33:21;;;;;;;0.25;0.25;;;12.30;99.90;;;;;;5065029;28;20033;-82
2021/07/10 03:35:47;;;;;;;0.20;0.20;;;12.30;99.90;;;;;;5066430;28;20482;-82
2021/07/10 03:38:13;;;;;;;0.17;0.17;;;12.30;99.90;;;;;;5052237;28;20119;-82
2021/07/10 03:40:39;;;;;;;0.13;0.13;;;12.30;99.90;;;;;;5049301;28;20060;-82
2021/07/10 03:43:05;;;;;;;0.00;0.00;;;12.30;99.90;;;;;;5070928;28;20072;-82
2021/07/10 03:45:31;;;;;;;0.28;0.13;;;12.40;99.90;;;;;;5069784;28;20694;-82
2021/07/10 03:47:57;;;;;;;0.20;0.20;;;12.30;99.90;;;;;;5071925;28;20039;-82
2021/07/10 03:50:23;;;;;;;0.20;0.20;;;12.40;99.90;;;;;;5051846;28;20025;-82
2021/07/10 03:52:49;;;;;;;0.60;0.60;;;12.30;99.90;;;;;;5066032;28;20039;-82
2021/07/10 03:55:16;;;;;;;0.13;0.13;;;12.30;99.90;;;;;;5069213;28;20444;-82
2021/07/10 03:57:42;;;;;;;0.10;0.10;;;12.40;99.90;;;;;;5070423;28;20040;-82
2021/07/10 04:00:15;;;;;;;0.50;0.50;;;12.30;99.90;;;;;;5053125;28;20082;-82
2021/07/10 04:02:41;;;;;;;0.17;0.17;;;12.20;99.90;;;;;;5071651;28;20024;-82
2021/07/10 04:05:08;;;;;;;12.00;0.43;;;12.20;99.90;;;;;;5068049;28;20079;-82
2021/07/10 04:07:34;;;;;;;0.90;0.30;;;12.40;99.90;;;;;;5058232;28;20116;-82
2021/07/10 04:10:01;;;;;;;0.10;0.10;;;12.40;99.90;;;;;;5071982;28;20031;-82
2021/07/10 04:12:28;;;;;;;;;;;12.40;99.90;;;;;;5066737;28;20294;-82
2021/07/10 04:14:59;;;;;;;0.10;0.10;;;12.30;99.90;;;;;;5070249;28;19913;-82
2021/07/10 04:17:26;;;;;;;0.17;0.17;;;12.30;99.90;;;;;;5059139;28;20389;-82
2021/07/10 04:19:51;;;;;;;0.00;0.00;;;12.30;99.90;;;;;;5055481;28;20059;-82
2021/07/10 04:22:17;;;;;;;0.10;0.10;;;12.30;99.90;;;;;;5051737;28;20033;-82
2021/07/10 04:24:43;;;;;;;0.17;0.17;;;12.20;99.90;;;;;;5057323;28;20025;-83
2021/07/10 04:27:09;;;;;;;0.10;0.10;;;12.20;99.90;;;;;;5066911;28;20029;-83
2021/07/10 04:29:35;;;;;;;0.10;0.08;;;12.20;99.90;;;;;;5069892;28;20025;-84
2021/07/10 04:32:00;;;;;;;0.28;0.22;;;12.20;99.90;;;;;;5071262;28;20047;-83
2021/07/10 04:34:26;;;;;;;0.63;0.63;;;12.60;99.90;;;;;;5070297;28;20028;-83
2021/07/10 04:36:57;;;;;;;0.10;0.10;;;13.10;99.90;;;;;;5059600;28;20111;-83
2021/07/10 04:39:23;;;;;;;0.20;0.20;;;13.30;99.90;;;;;;5051464;28;20024;-83
2021/07/10 04:41:48;;;;;;;0.10;0.10;;;13.80;99.90;;;;;;5053850;28;20036;-82
2021/07/10 04:44:16;;;;;;;0.00;0.00;;;14.20;99.90;;;;;;5049584;28;20075;-83
2021/07/10 04:46:41;;;;;;;2.40;0.50;;;14.60;99.90;;;;;;5063960;28;20060;-83
2021/07/10 04:49:07;;;;;;;0.23;0.20;;;14.50;99.90;;;;;;5063568;28;20029;-83
2021/07/10 04:51:33;;;;;;;0.50;0.50;;;14.80;99.90;;;;;;5051360;28;20024;-84
2021/07/10 04:53:59;;;;;;;0.10;0.10;;;15.10;99.90;;;;;;5051596;28;20029;-82
2021/07/10 04:56:24;;;;;;;0.20;0.20;;;15.30;99.90;;;;;;5050634;28;20032;-82
2021/07/10 04:58:50;;;;;;;0.40;0.40;;;15.40;99.90;;;;;;5052469;28;20533;-81
2021/07/10 05:01:16;;;;;;;2.13;0.87;;;15.60;99.90;;;;;;5057276;28;20393;-80
2021/07/10 05:03:42;;;;;;;0.10;0.10;;;15.40;99.90;;;;;;5063267;28;20059;-81
2021/07/10 05:06:11;;;;;;;0.00;0.00;;;15.80;99.90;;;;;;5063352;28;20043;-80
2021/07/10 05:08:37;;;;;;;0.10;0.10;;;16.00;99.90;;;;;;5066417;28;20032;-80
2021/07/10 05:11:03;;;;;;;0.10;0.10;;;16.20;99.90;;;;;;5064583;28;20667;-82
2021/07/10 05:13:29;;;;;;;0.00;0.00;;;16.50;99.90;;;;;;5052961;28;20067;-81
2021/07/10 05:15:55;;;;;;;0.10;0.10;;;16.40;99.90;;;;;;5058480;28;20024;-81
2021/07/10 05:18:20;;;;;;;0.00;0.00;;;16.60;99.90;;;;;;5062276;28;20109;-81
2021/07/10 05:20:49;;;;;;;0.10;0.10;;;16.50;99.90;;;;;;5066281;28;20089;-82
2021/07/10 05:23:15;;;;;;;0.00;0.00;;;16.40;99.90;;;;;;5055623;28;20020;-81
2021/07/10 05:25:41;;;;;;;0.10;0.10;;;16.20;99.90;;;;;;5068915;28;20102;-81
2021/07/10 05:28:07;;;;;;;0.10;0.10;;;16.50;99.90;;;;;;5061844;28;20017;-82
2021/07/10 05:30:33;;;;;;;0.07;0.07;;;16.70;99.90;;;;;;5050776;28;20033;-82
2021/07/10 05:32:59;;;;;;;0.10;0.10;;;16.70;99.90;;;;;;5069087;28;20269;-81
2021/07/10 05:35:26;;;;;;;0.20;0.20;;;16.80;99.90;;;;;;5059034;28;20025;-81
2021/07/10 05:37:53;;;;;;;0.10;0.10;;;17.10;99.90;;;;;;5057191;28;20082;-82
2021/07/10 05:40:19;;;;;;;0.80;0.80;;;17.10;99.90;;;;;;5063643;28;20082;-82
2021/07/10 05:42:48;;;;;;;0.30;0.30;;;17.50;99.90;;;;;;5048786;28;20129;-82
2021/07/10 05:45:15;;;;;;;2.95;0.43;;;17.90;99.90;;;;;;5059310;28;20123;-82
2021/07/10 05:47:41;;;;;;;0.28;0.28;;;18.20;99.90;;;;;;5065878;28;20712;-82
2021/07/10 05:50:08;;;;;;;0.07;0.07;;;18.20;99.90;;;;;;5057511;28;20030;-81
2021/07/10 05:52:34;;;;;;;0.17;0.17;;;18.20;99.90;;;;;;5065433;28;20045;-81
2021/07/10 05:55:01;;;;;;;0.00;0.00;;;18.90;99.90;;;;;;5056348;28;20036;-81
2021/07/10 05:57:27;;;;;;;0.00;0.00;;;19.40;99.90;;;;;;5065691;28;20445;-81
2021/07/10 05:59:53;;;;;;;0.10;0.10;;;20.50;99.90;;;;;;5068544;28;20056;-81
2021/07/10 06:02:19;;;;;;;0.87;0.20;;;20.20;99.90;;;;;;5068258;28;20357;-80
2021/07/10 06:04:44;;;;;;;0.00;0.00;;;21.50;99.90;;;;;;5047732;28;20040;-81
2021/07/10 06:07:10;;;;;;;0.10;0.00;;;23.20;99.90;;;;;;5048561;28;20032;-82
2021/07/10 06:09:36;;;;;;;0.00;0.00;;;23.30;99.90;;;;;;5047085;28;20271;-81
2021/07/10 06:12:03;;;;;;;0.00;0.00;;;24.90;99.90;;;;;;5059644;28;20032;-83
2021/07/10 06:14:28;;;;;;;0.00;0.00;;;25.30;99.90;;;;;;5060813;28;20115;-82
2021/07/10 06:16:54;;;;;;;0.45;0.45;;;24.50;99.90;;;;;;5058968;28;20099;-81
2021/07/10 06:19:20;;;;;;;0.00;0.00;;;23.00;99.90;;;;;;5048312;28;20437;-81
2021/07/10 06:21:47;;;;;;;0.00;0.00;;;21.50;99.90;;;;;;5051382;28;20035;-81
2021/07/10 06:24:13;;;;;;;0.00;0.00;;;20.70;99.90;;;;;;5051391;28;20040;-80
2021/07/10 06:26:39;;;;;;;0.17;0.17;;;19.80;99.90;;;;;;5058844;28;20024;-81
2021/07/10 06:29:06;;;;;;;0.40;0.10;;;18.90;99.90;;;;;;5058295;28;20060;-81
2021/07/10 06:31:32;;;;;;;0.00;0.00;;;18.10;99.90;;;;;;5048153;28;20100;-81
2021/07/10 06:34:03;;;;;;;0.00;0.00;;;18.10;99.90;;;;;;5048416;28;20029;-81
2021/07/10 06:36:38;;;;;;;0.00;0.00;;;17.60;99.90;;;;;;5055173;28;20021;-80
2021/07/10 06:39:04;;;;;;;0.20;0.20;;;17.40;99.90;;;;;;5060811;28;20513;-83
2021/07/10 06:41:31;;;;;;;0.20;0.20;;;17.30;99.90;;;;;;5051770;28;20029;-83
2021/07/10 06:43:57;;;;;;;0.00;0.00;;;17.20;99.90;;;;;;5047818;28;20060;-81
2021/07/10 06:46:23;;;;;;;0.17;0.17;;;17.20;99.90;;;;;;5045855;28;20037;-82
2021/07/10 06:48:49;;;;;;;0.00;0.00;;;17.40;99.90;;;;;;5062352;28;20098;-82
2021/07/10 06:51:16;;;;;;;0.30;0.30;;;17.20;99.90;;;;;;5068380;28;20305;-82
2021/07/10 06:53:43;;;;;;;0.20;0.17;;;17.60;99.90;;;;;;5056253;28;20055;-83
2021/07/10 06:56:09;;;;;;;1.80;0.43;;;19.40;99.90;;;;;;5058729;28;20025;-82
2021/07/10 06:58:34;;;;;;;0.00;0.00;;;20.30;99.90;;;;;;5063519;28;20046;-82
2021/07/10 07:01:00;;;;;;;0.23;0.23;;;20.10;99.90;;;;;;5057376;28;20504;-81
2021/07/10 07:03:26;;;;;;;0.00;0.00;;;19.90;99.90;;;;;;5047504;28;20025;-81
2021/07/10 07:05:52;;;;;;;0.50;0.13;;;19.10;99.90;;;;;;5046383;28;20029;-81
2021/07/10 07:08:17;;;;;;;0.70;0.30;;;18.90;99.90;;;;;;5048271;28;20033;-81
2021/07/10 07:10:43;;;;;;;0.10;0.10;;;20.10;99.90;;;;;;5062642;28;20031;-82
2021/07/10 07:13:09;;;;;;;0.00;0.00;;;21.30;99.90;;;;;;5053500;28;20041;-84
2021/07/10 07:15:35;;;;;;;0.17;0.17;;;20.40;99.90;;;;;;5067032;28;20029;-81
2021/07/10 07:18:01;;;;;;;0.00;0.00;;;20.10;99.90;;;;;;5054558;28;20032;-83
2021/07/10 07:20:27;;;;;;;0.30;0.20;;;20.20;99.90;;;;;;5052365;28;20032;-83
2021/07/10 07:22:53;;;;;;;0.10;0.10;;;19.80;99.90;;;;;;5053130;28;20095;-82
2021/07/10 07:25:20;;;;;;;0.00;0.00;;;19.30;99.90;;;;;;5070234;28;20343;-83
2021/07/10 07:27:48;;;;;;;0.10;0.10;;;19.60;99.90;;;;;;5070350;28;20037;-83
2021/07/10 07:30:14;;;;;;;0.00;0.00;;;20.80;99.90;;;;;;5068187;28;20033;-83
2021/07/10 07:32:40;;;;;;;0.00;0.00;;;25.30;99.90;;;;;;5052188;28;20029;-83
2021/07/10 07:35:09;;;;;;;0.10;0.10;;;28.30;98.70;;;;;;5057856;28;20108;-83
2021/07/10 07:37:35;;;;;;;0.17;0.00;;;29.50;94.60;;;;;;5071095;28;20024;-82
2021/07/10 07:40:00;;;;;;;0.03;0.00;;;29.10;92.80;;;;;;5071165;28;20052;-82
2021/07/10 07:42:26;;;;;;;0.10;0.10;;;26.80;94.10;;;;;;5061724;28;20079;-82
2021/07/10 07:44:52;;;;;;;0.00;0.00;;;28.70;92.00;;;;;;5051888;28;20063;-83
2021/07/10 07:47:18;;;;;;;0.10;0.10;;;29.50;91.10;;;;;;5050017;28;20043;-84
2021/07/10 07:49:45;;;;;;;0.00;0.00;;;29.40;90.70;;;;;;5050841;28;20041;-83
2021/07/10 07:52:12;;;;;;;0.17;0.10;;;27.90;88.40;;;;;;5059545;28;20040;-83
2021/07/10 07:54:38;;;;;;;0.00;0.00;;;29.10;89.50;;;;;;5069674;28;20025;-83
2021/07/10 07:57:04;;;;;;;0.10;0.10;;;28.20;90.20;;;;;;5071859;28;20027;-84
2021/07/10 07:59:30;;;;;;;0.00;0.00;;;28.30;86.00;;;;;;5071073;28;20032;-84
2021/07/10 08:01:56;;;;;;;0.20;0.03;;;30.10;82.20;;;;;;5071995;28;20031;-84
2021/07/10 08:04:22;;;;;;;;;;;31.50;80.60;;;;;;5070746;28;20874;-84
2021/07/10 08:06:48;;;;;;;0.52;0.15;;;30.00;75.80;;;;;;5070198;28;19915;-84
2021/07/10 08:09:14;;;;;;;;;;;32.50;75.20;;;;;;5071966;28;20024;-84
2021/07/10 08:11:40;;;;;;;0.00;0.00;;;33.10;68.30;;;;;;5062650;28;20370;-84
2021/07/10 08:14:06;;;;;;;0.00;0.00;;;32.30;65.40;;;;;;5051007;28;20071;-84
2021/07/10 08:16:31;;;;;;;;;;;34.60;58.30;;;;;;5051356;28;20052;-84
2021/07/10 08:18:57;;;;;;;0.00;0.00;;;34.40;59.60;;;;;;5049508;28;19982;-84
2021/07/10 08:21:25;;;;;;;0.10;0.10;;;33.90;55.40;;;;;;5050887;28;20122;-84
2021/07/10 08:23:51;;;;;;;0.00;0.00;;;34.30;58.20;;;;;;5050937;28;20033;-84
2021/07/10 08:26:17;;;;;;;1.45;0.20;;;34.50;54.90;;;;;;5058625;28;20016;-84
2021/07/10 08:28:43;;;;;;;0.00;0.00;;;35.20;51.80;;;;;;5061710;28;20122;-84
2021/07/10 08:31:09;;;;;;;0.00;0.00;;;34.90;50.10;;;;;;5050855;28;20114;-84
2021/07/10 08:33:35;;;;;;;0.00;0.00;;;35.70;47.70;;;;;;5050270;28;20037;-83
2021/07/10 08:36:01;;;;;;;0.20;0.20;;;34.00;44.50;;;;;;5049202;28;20021;-84
2021/07/10 08:38:27;;;;;;;0.00;0.00;;;34.80;51.40;;;;;;5065521;28;20175;-84
2021/07/10 08:40:54;;;;;;;0.00;0.00;;;34.30;48.20;;;;;;5060978;28;20103;-83
2021/07/10 08:43:20;;;;;;;0.00;0.00;;;36.10;43.10;;;;;;5065492;28;20579;-83
2021/07/10 08:45:48;;;;;;;0.32;0.25;;;35.10;46.20;;;;;;5050527;28;20029;-84
2021/07/10 08:48:14;;;;;;;0.20;0.20;;;36.30;41.90;;;;;;5050459;28;20112;-84
2021/07/10 08:50:41;;;;;;;0.10;0.10;;;35.70;46.20;;;;;;5050417;28;20572;-83
2021/07/10 08:53:07;;;;;;;0.00;0.00;;;35.30;43.30;;;;;;5048944;28;20029;-83
2021/07/10 08:55:36;;;;;;;0.10;0.10;;;37.10;40.60;;;;;;5049912;28;20035;-83
2021/07/10 08:58:02;;;;;;;0.00;0.00;;;38.00;34.40;;;;;;5049771;28;20031;-83
2021/07/10 09:00:39;;;;;;;0.00;0.00;;;32.00;41.60;;;;;;5048784;28;20025;-83
2021/07/10 09:03:06;;;;;;;0.00;0.00;;;34.40;48.00;;;;;;5049770;28;20033;-84
2021/07/10 09:05:33;;;;;;;0.38;0.15;;;32.80;46.30;;;;;;5050386;28;20035;-83
2021/07/10 09:08:12;;;;;;;0.10;0.10;;;36.60;35.90;;;;;;5049283;28;20426;-83
2021/07/10 09:10:58;;;;;;;0.10;0.10;;;33.30;36.40;;;;;;5059622;28;20025;-85
2021/07/10 09:13:37;;;;;;;0.00;0.00;;;34.10;36.60;;;;;;5050359;28;20116;-85
2021/07/10 09:16:06;;;;;;;0.10;0.00;;;35.60;29.50;;;;;;5050895;28;20028;-84
2021/07/10 09:18:46;;;;;;;0.00;0.00;;;33.70;31.20;;;;;;5050381;28;20029;-86
2021/07/10 09:21:32;;;;;;;0.08;0.08;;;36.30;34.90;;;;;;5049398;28;20029;-85
2021/07/10 09:23:57;;;;;;;0.15;0.15;;;35.00;35.90;;;;;;5050479;28;20029;-85
2021/07/10 09:26:26;;;;;;;;;;;33.10;37.20;;;;;;5050759;28;20086;-85
2021/07/10 09:29:16;;;;;;;0.15;0.15;;;33.30;34.20;;;;;;5061706;28;19920;-85
2021/07/10 09:31:59;;;;;;;0.00;0.00;;;34.10;34.00;;;;;;5053912;28;20599;-85
2021/07/10 09:34:36;;;;;;;0.10;0.10;;;36.60;29.50;;;;;;5058416;28;20028;-84
2021/07/10 09:37:12;;;;;;;0.13;0.10;;;39.50;23.90;;;;;;5061620;28;20060;-85
2021/07/10 09:39:53;;;;;;;0.10;0.10;;;35.40;27.40;;;;;;5056076;28;20017;-86
2021/07/10 09:42:36;;;;;;;0.10;0.10;;;36.20;26.20;;;;;;5050894;28;20140;-83
2021/07/10 09:45:06;;;;;;;0.10;0.10;;;35.20;26.90;;;;;;5053922;28;20020;-84
2021/07/10 09:47:35;;;;;;;0.00;0.00;;;32.90;34.50;;;;;;5055946;28;20031;-84
2021/07/10 09:50:04;;;;;;;0.10;0.00;;;34.50;29.70;;;;;;5057623;28;20501;-84
2021/07/10 09:52:36;;;;;;;0.00;0.00;;;33.80;30.50;;;;;;5048755;28;20569;-86
2021/07/10 09:55:11;;;;;;;0.10;0.10;;;35.10;29.00;;;;;;5053441;28;20041;-85
2021/07/10 09:57:39;;;;;;;0.00;0.00;;;36.00;32.20;;;;;;5050935;28;20021;-86
2021/07/10 10:00:05;;;;;;;0.05;0.00;;;34.20;33.70;;;;;;5050068;28;20098;-86
2021/07/10 10:02:33;;;;;;;0.57;0.43;;;33.70;30.00;;;;;;5048723;28;20029;-85
2021/07/10 10:05:13;;;;;;;0.10;0.10;;;33.80;26.10;;;;;;5048888;28;20029;-83
2021/07/10 10:07:46;;;;;;;0.13;0.13;;;33.50;31.40;;;;;;5051730;28;20705;-84
2021/07/10 10:10:24;;;;;;;0.00;0.00;;;32.70;29.30;;;;;;5048495;28;20112;-83
2021/07/10 10:13:07;;;;;;;0.00;0.00;;;32.90;30.20;;;;;;5048613;28;20032;-84
2021/07/10 10:15:48;;;;;;;0.90;0.52;;;33.50;30.80;;;;;;5060342;28;20046;-84
2021/07/10 10:18:21;;;;;;;0.22;0.22;;;30.90;33.30;;;;;;5057976;28;20033;-84
2021/07/10 10:20:50;;;;;;;0.00;0.00;;;35.90;27.50;;;;;;5062519;28;20029;-84
2021/07/10 10:23:19;;;;;;;0.17;0.17;;;38.70;21.70;;;;;;5050055;28;20424;-84
2021/07/10 10:25:46;;;;;;;0.00;0.00;;;38.60;21.00;;;;;;5051801;28;20027;-85
2021/07/10 10:28:18;;;;;;;1.13;0.10;;;34.50;25.50;;;;;;5053180;28;20513;-83
2021/07/10 10:30:49;;;;;;;0.55;0.45;;;33.60;30.80;;;;;;5064032;28;20029;-83
2021/07/10 10:33:15;;;;;;;0.08;0.08;;;33.50;26.90;;;;;;5050082;28;20033;-83
2021/07/10 10:35:41;;;;;;;0.55;0.28;;;31.20;33.10;;;;;;5048904;28;20394;-83
2021/07/10 10:38:08;;;;;;;0.10;0.10;;;29.10;38.60;;;;;;5059012;28;20025;-83
2021/07/10 10:40:34;;;;;;;;;;;28.50;39.60;;;;;;5067858;28;20032;-83
2021/07/10 10:43:02;;;;;;;0.10;0.10;;;28.20;38.40;;;;;;5066840;28;19926;-83
2021/07/10 10:45:30;;;;;;;1.02;0.30;;;29.10;37.30;;;;;;5068478;28;20038;-83
2021/07/10 10:47:56;;;;;;;0.00;0.00;;;27.80;39.90;;;;;;5053916;28;20123;-83
2021/07/10 10:50:28;;;;;;;0.38;0.22;;;28.20;39.30;;;;;;5049926;28;20497;-83
2021/07/10 10:52:59;;;;;;;0.00;0.00;;;27.60;40.20;;;;;;5052696;28;20460;-83
2021/07/10 10:55:33;;;;;;;1.67;0.35;;;27.20;41.30;;;;;;5057300;28;20029;-83
2021/07/10 10:58:02;;;;;;;0.00;0.00;;;26.20;45.10;;;;;;5064001;28;20032;-83
2021/07/10 11:00:34;;;;;;;0.00;0.00;;;26.10;46.50;;;;;;5060394;28;20121;-83
2021/07/10 11:03:10;;;;;;;0.05;0.05;;;26.20;46.60;;;;;;5056386;28;20025;-83
2021/07/10 11:05:43;;;;;;;0.22;0.10;;;25.80;47.00;;;;;;5063391;28;20513;-83
2021/07/10 11:08:18;;;;;;;0.05;0.05;;;25.40;48.50;;;;;;5060131;28;20112;-83
2021/07/10 11:11:05;;;;;;;0.00;0.00;;;25.20;50.20;;;;;;5062355;28;20028;-83
2021/07/10 11:14:00;;;;;;;0.10;0.10;;;25.30;50.30;;;;;;5057952;28;20240;-83
2021/07/10 11:16:26;;;;;;;0.55;0.10;;;25.60;50.60;;;;;;5052408;28;20032;-83
2021/07/10 11:18:58;;;;;;;0.22;0.22;;;25.50;51.90;;;;;;5060040;28;20033;-83
2021/07/10 11:21:38;;;;;;;0.65;0.22;;;25.30;51.30;;;;;;5055336;28;20017;-83
2021/07/10 11:26:56;;;;;;;0.00;0.00;;;25.80;50.10;;;;;;5059746;28;20397;-83
2021/07/10 11:29:32;;;;;;;0.00;0.00;;;27.10;49.70;;;;;;5067821;28;20020;-83
2021/07/10 11:32:14;;;;;;;0.13;0.13;;;27.70;48.90;;;;;;5053533;28;20067;-84
2021/07/10 11:34:46;;;;;;;0.57;0.50;;;29.00;45.50;;;;;;5062219;28;20043;-86
2021/07/10 11:37:29;;;;;;;0.10;0.10;;;29.90;43.40;;;;;;5054955;28;20033;-85
2021/07/10 11:40:06;;;;;;;0.08;0.08;;;29.80;42.80;;;;;;5059683;28;20032;-84
2021/07/10 11:42:35;;;;;;;0.08;0.08;;;29.20;43.90;;;;;;5061128;28;20052;-84
2021/07/10 11:45:13;;;;;;;0.10;0.10;;;28.80;43.00;;;;;;5054820;28;20035;-84
2021/07/10 11:47:44;;;;;;;0.00;0.00;;;28.00;46.90;;;;;;5056690;28;20051;-84
2021/07/10 11:50:25;;;;;;;0.08;0.03;;;27.40;46.30;;;;;;5058015;28;20755;-84
2021/07/10 11:53:10;;;;;;;0.10;0.10;;;27.90;48.20;;;;;;5058458;28;20473;-84
2021/07/10 11:55:44;;;;;;;1.20;0.40;;;27.50;49.80;;;;;;5054864;28;20012;-85
2021/07/10 11:58:14;;;;;;;0.00;0.00;;;28.80;46.00;;;;;;5066479;28;20103;-84
2021/07/10 12:00:40;;;;;;;0.00;0.00;;;28.20;45.90;;;;;;5058825;28;20032;-84
2021/07/10 12:03:23;;;;;;;0.08;0.00;;;28.80;46.10;;;;;;5054254;28;20138;-85
2021/07/10 12:05:51;;;;;;;0.00;0.00;;;29.00;46.90;;;;;;5059186;28;20041;-84
2021/07/10 12:08:18;;;;;;;0.22;0.22;;;29.20;42.10;;;;;;5059697;28;20024;-84
2021/07/10 12:10:46;;;;;;;0.00;0.00;;;28.00;43.80;;;;;;5056676;28;20112;-85
2021/07/10 12:13:21;;;;;;;0.05;0.00;;;27.20;46.20;;;;;;5060516;28;20033;-85
2021/07/10 12:15:52;;;;;;;0.05;0.05;;;28.00;44.80;;;;;;5061581;28;20403;-84
2021/07/10 12:18:18;;;;;;;0.00;0.00;;;29.40;44.80;;;;;;5066100;28;20020;-86
2021/07/10 12:20:57;;;;;;;1.55;0.57;;;28.40;45.60;;;;;;5052920;28;20596;-85
2021/07/10 12:23:33;;;;;;;1.38;0.65;;;28.20;47.70;;;;;;5056445;28;20039;-85
2021/07/10 12:26:07;;;;;;;0.10;0.10;;;27.80;46.90;;;;;;5055418;28;20051;-85
2021/07/10 12:28:39;;;;;;;0.17;0.00;;;27.00;51.40;;;;;;5057264;28;20205;-85
2021/07/10 12:31:12;;;;;;;0.40;0.40;;;26.90;51.80;;;;;;5054747;28;20032;-84
2021/07/10 12:33:43;;;;;;;0.28;0.28;;;27.40;52.60;;;;;;5054182;28;20025;-84
2021/07/10 12:36:22;;;;;;;0.03;0.00;;;27.40;50.30;;;;;;5055826;28;20078;-84
2021/07/10 12:39:18;;;;;;;0.00;0.00;;;27.60;52.20;;;;;;5054710;28;20071;-84
2021/07/10 12:41:57;;;;;;;0.40;0.40;;;27.90;51.40;;;;;;5054915;28;20028;-85
2021/07/10 12:44:35;;;;;;;0.00;0.00;;;27.50;52.50;;;;;;5055789;28;20083;-84
2021/07/10 12:47:15;;;;;;;0.08;0.03;;;27.00;51.20;;;;;;5059909;28;20063;-85
2021/07/10 12:49:56;;;;;;;0.08;0.08;;;27.20;49.90;;;;;;5056129;28;20051;-85
2021/07/10 12:52:29;;;;;;;0.65;0.32;;;28.10;47.10;;;;;;5053603;28;20056;-85
2021/07/10 12:55:10;;;;;;;0.08;0.00;;;28.20;47.20;;;;;;5050439;28;20086;-85
2021/07/10 12:57:49;;;;;;;0.03;0.03;;;27.10;51.60;;;;;;5055488;28;20435;-85